EYSA/SQQ METAR and TAF weather

Enter ICAO airport designator
Station Type Date Time Source
EYSA METAR 2018/09/21 23:50 UTC NOAA

EYSA 212350Z AUTO 19010KT CAVOK 20/11 Q1002


Station Type Date Time Source
EYSA Decoded METAR 2018/09/21 23:50 UTC NOAA

Siauliai Intl./Mil., Lithuania (EYSA) 55-53-38N 023-23-42E
Sep 21, 2018 - 07:50 PM EDT / 2018.09.21 2350 UTC
Wind: from the S (190 degrees) at 12 MPH (10 KT):0
Visibility: greater than 7 mile(s):0
Temperature: 68 F (20 C)
Dew Point: 51 F (11 C)
Relative Humidity: 56%
Pressure (altimeter): 29.59 in. Hg (1002 hPa)
ob: EYSA 212350Z AUTO 19010KT CAVOK 20/11 Q1002
cycle: 0

Station Type Date Time Source
EYSA TAF 2018/07/30 06:03 UTC NOAA

TAF TAF EYSA 300500Z 3006/3018 10007KT CAVOK


Example: see airport list